Time;durP1;ratioP1;P1;durP2;ratioP2;P2;SDS_P1;SDS_P2;PMS_P1;PMS_P2;Temp;Humidity;BMP_temperature;BMP_pressure;BME280_temperature;BME280_humidity;BME280_pressure;Samples;Min_cycle;Max_cycle;Signal;HPM_P1;HPM_P2
2024/01/09 00:01:56;;;;;;;10.80;3.20;;;-4.80;99.90;;;;;;5014609;28;20476;-61
2024/01/09 00:04:23;;;;;;;4.87;3.30;;;-4.80;99.90;;;;;;5014492;28;20563;-61
2024/01/09 00:06:50;;;;;;;8.30;3.57;;;-4.80;99.90;;;;;;5014459;28;20482;-61
2024/01/09 00:09:17;;;;;;;7.53;2.57;;;-4.80;99.90;;;;;;5018432;28;20437;-60
2024/01/09 00:11:44;;;;;;;6.80;2.37;;;-4.80;99.90;;;;;;5018795;28;20557;-62
2024/01/09 00:14:11;;;;;;;6.27;4.03;;;-4.80;99.90;;;;;;5018507;28;20538;-63
2024/01/09 00:16:38;;;;;;;3.73;2.70;;;-4.70;99.90;;;;;;5018381;28;20532;-61
2024/01/09 00:19:06;;;;;;;10.73;4.93;;;-4.80;99.90;;;;;;5018748;28;20476;-61
2024/01/09 00:21:33;;;;;;;5.10;2.33;;;-4.80;99.90;;;;;;5018370;28;20525;-62
2024/01/09 00:24:00;;;;;;;7.90;3.80;;;-4.80;99.90;;;;;;5018247;28;20505;-62
2024/01/09 00:26:27;;;;;;;3.47;1.93;;;-4.80;99.90;;;;;;5018310;28;20482;-59
2024/01/09 00:28:54;;;;;;;6.03;3.30;;;-4.90;99.90;;;;;;5018571;28;20954;-62
2024/01/09 00:31:21;;;;;;;5.50;3.13;;;-4.90;99.90;;;;;;5018436;28;20514;-60
2024/01/09 00:33:48;;;;;;;8.37;3.87;;;-4.90;99.90;;;;;;5019243;28;20477;-63
2024/01/09 00:36:16;;;;;;;7.90;4.00;;;-4.90;99.90;;;;;;5018336;28;20485;-60
2024/01/09 00:38:44;;;;;;;4.40;3.33;;;-4.90;99.90;;;;;;5019144;28;20447;-60
2024/01/09 00:41:11;;;;;;;8.30;4.37;;;-4.90;99.90;;;;;;5017824;28;20459;-62
2024/01/09 00:43:38;;;;;;;5.63;3.40;;;-6.00;99.90;;;;;;5018058;28;20963;-62
2024/01/09 00:46:05;;;;;;;8.73;3.90;;;-4.90;99.90;;;;;;5018092;28;20525;-61
2024/01/09 00:48:32;;;;;;;5.60;2.50;;;-5.00;99.90;;;;;;5017869;28;20478;-61
2024/01/09 00:50:59;;;;;;;8.40;3.73;;;-4.90;99.90;;;;;;5017924;28;20573;-62
2024/01/09 00:53:27;;;;;;;9.73;5.90;;;-4.90;99.90;;;;;;5018082;28;20537;-62
2024/01/09 00:55:54;;;;;;;1.97;1.83;;;-4.80;99.90;;;;;;5017957;28;20827;-59
2024/01/09 00:58:21;;;;;;;3.23;2.70;;;-5.00;99.90;;;;;;5018048;28;20457;-62
2024/01/09 01:00:48;;;;;;;8.63;5.13;;;-5.00;99.90;;;;;;5017932;28;20438;-62
2024/01/09 01:03:14;;;;;;;7.40;2.70;;;-5.00;99.90;;;;;;5017812;28;20546;-62
2024/01/09 01:05:41;;;;;;;2.57;2.40;;;-5.00;99.90;;;;;;5017769;28;20546;-62
2024/01/09 01:08:08;;;;;;;3.73;1.70;;;-5.00;99.90;;;;;;5017517;28;20478;-61
2024/01/09 01:10:36;;;;;;;8.87;3.87;;;-5.00;99.90;;;;;;5017715;28;20514;-62
2024/01/09 01:13:04;;;;;;;3.03;2.73;;;-5.10;99.90;;;;;;5017795;28;20783;-60
2024/01/09 01:15:31;;;;;;;4.53;4.10;;;-5.10;99.90;;;;;;5017581;28;20529;-61
2024/01/09 01:17:58;;;;;;;11.60;4.47;;;-5.10;99.90;;;;;;5018284;28;20449;-62
2024/01/09 01:20:24;;;;;;;4.47;3.00;;;-5.10;99.90;;;;;;5017831;28;20463;-61
2024/01/09 01:22:51;;;;;;;12.83;3.00;;;-5.10;99.90;;;;;;5017444;28;20502;-60
2024/01/09 01:25:18;;;;;;;8.63;4.43;;;-5.20;99.90;;;;;;5017333;28;20494;-62
2024/01/09 01:27:46;;;;;;;10.43;4.47;;;-5.20;99.90;;;;;;5017627;28;20475;-62
2024/01/09 01:30:14;;;;;;;9.07;3.63;;;-5.20;99.90;;;;;;5017090;28;20502;-62
2024/01/09 01:32:40;;;;;;;5.03;3.10;;;-5.20;99.90;;;;;;5017362;28;20474;-63
2024/01/09 01:35:08;;;;;;;6.67;4.40;;;-5.20;99.90;;;;;;5017255;28;20532;-63
2024/01/09 01:37:34;;;;;;;2.20;1.80;;;-5.30;99.90;;;;;;5017404;28;20525;-62
2024/01/09 01:40:02;;;;;;;7.00;3.20;;;-5.30;99.90;;;;;;5017164;28;20545;-61
2024/01/09 01:42:28;;;;;;;8.00;3.53;;;-5.30;99.90;;;;;;5017252;28;20804;-61
2024/01/09 01:44:59;;;;;;;5.13;3.87;;;-5.30;99.90;;;;;;5017353;28;20453;-61
2024/01/09 01:47:26;;;;;;;8.90;4.13;;;-5.40;99.90;;;;;;5017073;28;20515;-61
2024/01/09 01:49:53;;;;;;;10.47;3.77;;;-5.40;99.90;;;;;;5016940;28;20549;-61
2024/01/09 01:52:20;;;;;;;5.70;2.63;;;-5.40;99.90;;;;;;5016869;28;20479;-63
2024/01/09 01:54:47;;;;;;;6.20;4.57;;;-4.90;99.90;;;;;;5016866;28;20533;-62
2024/01/09 01:57:15;;;;;;;8.97;3.50;;;-5.50;99.90;;;;;;5016893;28;20450;-62
2024/01/09 01:59:46;;;;;;;5.77;3.43;;;-5.40;99.90;;;;;;5016546;28;20451;-62
2024/01/09 02:02:15;;;;;;;5.33;3.60;;;-5.50;99.90;;;;;;5016510;28;20502;-61
2024/01/09 02:04:42;;;;;;;11.03;3.70;;;-5.50;99.90;;;;;;5016429;28;20456;-61
2024/01/09 02:07:10;;;;;;;4.23;3.23;;;-5.50;99.90;;;;;;5016604;28;20565;-61
2024/01/09 02:09:38;;;;;;;7.93;4.23;;;-5.50;99.90;;;;;;5016691;28;20511;-60
2024/01/09 02:12:05;;;;;;;3.80;2.20;;;-5.60;99.90;;;;;;5016255;28;20488;-61
2024/01/09 02:14:32;;;;;;;3.00;1.63;;;-5.60;99.90;;;;;;5016585;28;20491;-61
2024/01/09 02:16:59;;;;;;;5.93;4.00;;;-5.60;99.90;;;;;;5016520;28;20840;-59
2024/01/09 02:19:27;;;;;;;6.30;3.10;;;-5.60;99.90;;;;;;5016171;28;20512;-61
2024/01/09 02:21:54;;;;;;;9.27;4.27;;;-5.60;99.90;;;;;;5016479;28;20494;-59
2024/01/09 02:24:21;;;;;;;5.77;3.43;;;-5.60;99.90;;;;;;5016480;28;20430;-62
2024/01/09 02:26:53;;;;;;;7.80;3.03;;;-5.60;99.90;;;;;;5016370;28;20498;-61
2024/01/09 02:29:24;;;;;;;6.97;3.20;;;-5.60;99.90;;;;;;5016289;28;20557;-61
2024/01/09 02:31:53;;;;;;;7.17;3.70;;;-5.70;99.90;;;;;;5015364;28;20476;-61
2024/01/09 02:34:21;;;;;;;5.60;3.37;;;-5.70;99.90;;;;;;5016164;28;20488;-60
2024/01/09 02:36:48;;;;;;;8.97;3.50;;;-5.80;99.90;;;;;;5016701;28;20594;-62
2024/01/09 02:39:15;;;;;;;9.60;3.90;;;-5.80;99.90;;;;;;5016358;28;20502;-61
2024/01/09 02:41:41;;;;;;;6.63;1.83;;;-4.40;99.90;;;;;;5015656;28;20508;-62
2024/01/09 02:44:08;;;;;;;11.30;6.27;;;-5.80;99.90;;;;;;5015784;28;20879;-62
2024/01/09 02:46:35;;;;;;;5.33;3.77;;;-5.80;99.90;;;;;;5015985;28;20776;-62
2024/01/09 02:49:03;;;;;;;8.80;4.47;;;-5.90;99.90;;;;;;5015903;28;20499;-63
2024/01/09 02:51:30;;;;;;;10.47;2.97;;;-5.90;99.90;;;;;;5015886;28;20747;-62
2024/01/09 02:53:57;;;;;;;14.80;3.80;;;-5.90;99.90;;;;;;5015861;28;20482;-60
2024/01/09 02:56:24;;;;;;;16.70;4.73;;;-5.90;99.90;;;;;;5015806;28;20502;-62
2024/01/09 02:58:51;;;;;;;9.97;4.30;;;-5.90;99.90;;;;;;5015545;28;20452;-62
2024/01/09 03:01:18;;;;;;;15.30;4.03;;;-5.90;99.90;;;;;;5015389;28;20489;-61
2024/01/09 03:03:44;;;;;;;5.10;2.30;;;-5.90;99.90;;;;;;5015507;28;20433;-61
2024/01/09 03:06:13;;;;;;;2.70;2.50;;;-5.90;99.90;;;;;;5015684;28;20483;-62
2024/01/09 03:08:40;;;;;;;10.40;4.40;;;-5.90;99.90;;;;;;5015355;28;20556;-63
2024/01/09 03:11:07;;;;;;;6.53;1.87;;;-5.90;99.90;;;;;;5015775;28;20484;-62
2024/01/09 03:13:34;;;;;;;9.27;4.93;;;-5.90;99.90;;;;;;5015537;28;20530;-60
2024/01/09 03:16:01;;;;;;;17.70;6.10;;;-6.00;99.90;;;;;;5015094;28;20507;-61
2024/01/09 03:18:27;;;;;;;7.13;3.73;;;-6.00;99.90;;;;;;5015470;28;20526;-61
2024/01/09 03:20:54;;;;;;;8.90;2.93;;;-6.00;99.90;;;;;;5015133;28;20444;-62
2024/01/09 03:23:23;;;;;;;9.77;4.77;;;-5.90;99.90;;;;;;5015382;28;20447;-61
2024/01/09 03:25:49;;;;;;;10.10;2.87;;;-5.80;99.90;;;;;;5015396;28;20442;-62
2024/01/09 03:28:16;;;;;;;6.30;3.03;;;-6.00;99.90;;;;;;5015228;28;20498;-58
2024/01/09 03:30:43;;;;;;;6.90;2.53;;;-6.00;99.90;;;;;;5015227;28;20510;-61
2024/01/09 03:33:10;;;;;;;6.07;4.37;;;-6.00;99.90;;;;;;5014973;28;20489;-62
2024/01/09 03:35:37;;;;;;;8.53;5.47;;;-6.10;99.90;;;;;;5015092;28;20469;-61
2024/01/09 03:38:04;;;;;;;2.40;1.80;;;-6.10;99.90;;;;;;5014911;28;20525;-62
2024/01/09 03:40:32;;;;;;;12.93;5.77;;;-6.10;99.90;;;;;;5015136;28;20538;-61
2024/01/09 03:42:59;;;;;;;15.60;4.73;;;-6.10;99.90;;;;;;5015129;28;20442;-62
2024/01/09 03:45:26;;;;;;;8.87;3.60;;;-6.10;99.90;;;;;;5015119;28;20542;-63
2024/01/09 03:47:53;;;;;;;10.03;4.77;;;-6.00;99.90;;;;;;5014706;28;20515;-63
2024/01/09 03:50:20;;;;;;;11.90;4.47;;;-6.20;99.90;;;;;;5015617;28;20460;-62
2024/01/09 03:52:47;;;;;;;7.90;3.10;;;-6.20;99.90;;;;;;5014669;28;20891;-60
2024/01/09 03:55:15;;;;;;;7.23;3.63;;;-6.10;99.90;;;;;;5040069;22;20576;-61
2024/01/09 03:57:43;;;;;;;9.43;5.87;;;-6.20;99.90;;;;;;4995073;28;20491;-62
2024/01/09 04:00:11;;;;;;;3.40;3.10;;;-6.30;99.90;;;;;;4994875;28;20480;-60
2024/01/09 04:02:38;;;;;;;10.00;4.17;;;-6.30;99.90;;;;;;4994895;28;20554;-62
2024/01/09 04:05:07;;;;;;;9.33;4.50;;;-6.30;99.90;;;;;;4995139;28;20824;-61
2024/01/09 04:07:33;;;;;;;12.33;5.17;;;-6.30;99.90;;;;;;4994781;28;20473;-58
2024/01/09 04:10:00;;;;;;;14.97;4.80;;;-6.30;99.90;;;;;;4995005;28;20532;-61
2024/01/09 04:12:27;;;;;;;8.47;3.77;;;-6.30;99.90;;;;;;4994578;28;20535;-61
2024/01/09 04:14:55;;;;;;;13.90;4.47;;;-6.30;99.90;;;;;;4994848;28;20508;-61
2024/01/09 04:17:22;;;;;;;16.70;5.30;;;-6.30;99.90;;;;;;4994944;28;20532;-61
2024/01/09 04:19:49;;;;;;;4.83;2.90;;;-6.30;99.90;;;;;;4994647;28;21021;-62
2024/01/09 04:22:16;;;;;;;10.23;4.60;;;-6.30;99.90;;;;;;4994710;28;20467;-60
2024/01/09 04:24:43;;;;;;;12.03;3.00;;;-6.30;99.90;;;;;;4994799;28;20956;-61
2024/01/09 04:27:09;;;;;;;7.93;2.93;;;-6.40;99.90;;;;;;4993924;28;20454;-62
2024/01/09 04:29:36;;;;;;;5.27;3.37;;;-6.30;99.90;;;;;;4994652;28;20491;-61
2024/01/09 04:32:05;;;;;;;6.93;4.47;;;-6.40;99.90;;;;;;4994534;28;20521;-63
2024/01/09 04:34:32;;;;;;;10.47;4.03;;;-6.40;99.90;;;;;;4994656;28;20514;-59
2024/01/09 04:36:59;;;;;;;9.73;4.73;;;-6.30;99.90;;;;;;4994721;28;20465;-62
2024/01/09 04:39:26;;;;;;;8.57;3.93;;;-6.30;99.90;;;;;;4994513;28;20451;-60
2024/01/09 04:41:52;;;;;;;5.73;3.83;;;-6.30;99.90;;;;;;4993753;28;20509;-59
2024/01/09 04:44:19;;;;;;;4.37;2.37;;;-6.40;99.90;;;;;;4994763;28;20455;-62
2024/01/09 04:46:46;;;;;;;10.87;5.23;;;-6.40;99.90;;;;;;4994358;28;20480;-62
2024/01/09 04:49:14;;;;;;;10.53;4.10;;;-6.40;99.90;;;;;;4994456;28;20515;-61
2024/01/09 04:51:42;;;;;;;12.03;5.20;;;-6.50;99.90;;;;;;4994596;28;20846;-61
2024/01/09 04:54:08;;;;;;;5.17;2.67;;;-6.50;99.90;;;;;;4996273;28;20933;-59
2024/01/09 04:56:35;;;;;;;3.37;2.90;;;-6.50;99.90;;;;;;4998355;28;20519;-60
2024/01/09 04:59:02;;;;;;;4.83;3.83;;;-5.60;99.90;;;;;;4998328;28;20443;-61
2024/01/09 05:01:29;;;;;;;8.70;4.40;;;-6.60;99.90;;;;;;4997889;28;20511;-61
2024/01/09 05:03:56;;;;;;;10.83;3.90;;;-5.40;99.90;;;;;;4998121;28;20440;-62
2024/01/09 05:06:28;;;;;;;4.73;3.20;;;-6.60;99.90;;;;;;4998035;28;20484;-61
2024/01/09 05:08:55;;;;;;;13.47;5.00;;;-6.60;99.90;;;;;;4998006;28;20550;-60
2024/01/09 05:11:22;;;;;;;10.13;4.87;;;-6.60;99.90;;;;;;4997556;28;20538;-62
2024/01/09 05:13:49;;;;;;;5.07;4.10;;;-6.60;99.90;;;;;;4997731;28;20563;-62
2024/01/09 05:16:16;;;;;;;6.03;3.10;;;-6.50;99.90;;;;;;4997853;28;20449;-61
2024/01/09 05:18:44;;;;;;;11.13;5.20;;;-6.50;99.90;;;;;;4998038;28;20471;-62
2024/01/09 05:21:10;;;;;;;3.20;1.70;;;-6.50;99.90;;;;;;4997821;28;20433;-61
2024/01/09 05:23:39;;;;;;;2.13;1.63;;;-6.50;99.90;;;;;;4998101;28;20481;-62
2024/01/09 05:26:07;;;;;;;7.47;4.40;;;-6.50;99.90;;;;;;4997677;28;20483;-61
2024/01/09 05:28:33;;;;;;;7.90;5.13;;;-6.60;99.90;;;;;;4997764;28;20444;-61
2024/01/09 05:31:03;;;;;;;4.27;3.00;;;-6.50;99.90;;;;;;4997367;28;20512;-60
2024/01/09 05:33:31;;;;;;;10.63;3.53;;;-6.60;99.90;;;;;;4997640;28;20576;-60
2024/01/09 05:35:58;;;;;;;2.63;2.17;;;-6.60;99.90;;;;;;4997448;28;20556;-63
2024/01/09 05:38:24;;;;;;;9.63;5.60;;;-6.60;99.90;;;;;;4997548;28;20474;-60
2024/01/09 05:40:54;;;;;;;5.83;3.77;;;-6.70;99.90;;;;;;4997277;28;20453;-62
2024/01/09 05:43:21;;;;;;;6.30;5.30;;;-6.70;99.90;;;;;;4997558;28;20468;-61
2024/01/09 05:45:48;;;;;;;5.63;2.50;;;-6.70;99.90;;;;;;4997192;28;20454;-63
2024/01/09 05:48:14;;;;;;;6.60;3.13;;;-6.80;99.90;;;;;;4997366;28;20483;-60
2024/01/09 05:50:41;;;;;;;12.33;5.80;;;-6.70;99.90;;;;;;4996984;28;20542;-62
2024/01/09 05:53:09;;;;;;;13.83;6.13;;;-6.80;99.90;;;;;;4996915;28;20484;-61
2024/01/09 05:55:36;;;;;;;9.30;3.30;;;-6.80;99.90;;;;;;4997036;28;20457;-59
2024/01/09 05:58:04;;;;;;;8.87;5.00;;;-6.70;99.90;;;;;;4996886;28;20535;-62
2024/01/09 06:00:33;;;;;;;7.17;6.17;;;-6.80;99.90;;;;;;4997359;28;20528;-60
2024/01/09 06:02:59;;;;;;;14.30;5.17;;;-6.80;99.90;;;;;;4997290;28;20448;-61
2024/01/09 06:05:26;;;;;;;4.03;2.60;;;-6.70;99.90;;;;;;4996231;28;20551;-60
2024/01/09 06:07:53;;;;;;;5.97;4.20;;;-6.70;99.90;;;;;;4996825;28;20825;-61
2024/01/09 06:10:20;;;;;;;12.33;4.33;;;-6.70;99.90;;;;;;4996994;28;20538;-62
2024/01/09 06:12:47;;;;;;;6.77;3.30;;;-6.70;99.90;;;;;;4999006;28;20494;-64
2024/01/09 06:15:16;;;;;;;9.53;4.20;;;-6.70;99.90;;;;;;4996807;28;20526;-61
2024/01/09 06:17:43;;;;;;;18.50;6.70;;;-6.70;99.90;;;;;;4997034;28;20835;-61
2024/01/09 06:20:10;;;;;;;6.23;4.70;;;-6.70;99.90;;;;;;4996721;28;21107;-61
2024/01/09 06:22:37;;;;;;;12.17;5.73;;;-6.70;99.90;;;;;;4996992;28;20488;-61
2024/01/09 06:25:05;;;;;;;9.67;5.83;;;-6.70;99.90;;;;;;4996792;28;20522;-60
2024/01/09 06:27:31;;;;;;;13.87;4.90;;;-6.70;99.90;;;;;;4996962;28;20521;-62
2024/01/09 06:29:58;;;;;;;19.30;6.83;;;-6.70;99.90;;;;;;4996892;28;20447;-61
2024/01/09 06:32:27;;;;;;;9.53;5.00;;;-6.70;99.90;;;;;;4996555;28;20489;-62
2024/01/09 06:34:53;;;;;;;7.57;3.83;;;-5.70;99.90;;;;;;4996759;28;20527;-61
2024/01/09 06:37:20;;;;;;;9.13;5.97;;;-6.70;99.90;;;;;;4996710;28;20475;-61
2024/01/09 06:39:46;;;;;;;23.07;6.73;;;-6.80;99.90;;;;;;4996601;28;20541;-61
2024/01/09 06:42:13;;;;;;;14.13;5.70;;;-6.80;99.90;;;;;;4995623;28;20468;-60
2024/01/09 06:44:40;;;;;;;11.50;4.10;;;-6.80;99.90;;;;;;4996463;28;20531;-62
2024/01/09 06:47:07;;;;;;;6.20;3.57;;;-6.90;99.90;;;;;;4996407;28;20450;-59
2024/01/09 06:49:35;;;;;;;8.07;5.03;;;-6.80;99.90;;;;;;4996141;28;20937;-62
2024/01/09 06:52:02;;;;;;;18.27;6.47;;;-6.80;99.90;;;;;;4996264;28;20679;-61
2024/01/09 06:54:29;;;;;;;9.67;5.37;;;-6.80;99.90;;;;;;4996049;28;20529;-62
2024/01/09 06:56:56;;;;;;;12.43;5.43;;;-6.80;99.90;;;;;;4996037;28;20562;-62
2024/01/09 06:59:22;;;;;;;15.67;5.10;;;-6.80;99.90;;;;;;4996151;28;21024;-59
2024/01/09 07:01:49;;;;;;;6.47;3.93;;;-6.80;99.90;;;;;;4996029;28;20554;-61
2024/01/09 07:04:16;;;;;;;11.80;5.93;;;-6.80;99.90;;;;;;4996319;28;20444;-62
2024/01/09 07:06:44;;;;;;;8.97;5.83;;;-6.80;99.90;;;;;;4995589;28;20941;-60
2024/01/09 07:09:11;;;;;;;12.70;4.87;;;-6.80;99.90;;;;;;4996116;28;20454;-61
2024/01/09 07:11:38;;;;;;;5.37;3.33;;;-6.80;99.90;;;;;;4996010;28;20468;-58
2024/01/09 07:14:09;;;;;;;6.27;3.40;;;-6.90;99.90;;;;;;4995988;28;20579;-62
2024/01/09 07:16:36;;;;;;;8.07;5.77;;;-6.80;99.90;;;;;;4994875;28;20479;-61
2024/01/09 07:19:03;;;;;;;6.10;3.40;;;-6.80;99.90;;;;;;4996665;28;20520;-57
2024/01/09 07:21:30;;;;;;;4.37;3.27;;;-6.80;99.90;;;;;;5002035;28;20450;-61
2024/01/09 07:24:01;;;;;;;5.60;4.13;;;-6.80;99.90;;;;;;5015556;28;20424;-63
2024/01/09 07:26:28;;;;;;;13.73;6.67;;;-6.80;99.90;;;;;;5018069;28;20469;-59
2024/01/09 07:28:55;;;;;;;5.00;3.90;;;-6.80;99.90;;;;;;5015066;28;20440;-59
2024/01/09 07:31:22;;;;;;;14.43;4.80;;;-6.80;99.90;;;;;;5013248;28;20456;-61
2024/01/09 07:33:49;;;;;;;13.80;6.87;;;-6.80;99.90;;;;;;5016911;28;20451;-60
2024/01/09 07:36:16;;;;;;;7.10;3.97;;;-6.80;99.90;;;;;;5016424;28;20448;-61
2024/01/09 07:38:43;;;;;;;8.20;4.27;;;-6.80;99.90;;;;;;5013864;28;20445;-61
2024/01/09 07:41:12;;;;;;;13.23;5.10;;;-6.80;99.90;;;;;;4982921;28;20486;-59
2024/01/09 07:43:39;;;;;;;9.77;6.40;;;-6.80;99.90;;;;;;4976102;28;20447;-60
2024/01/09 07:46:06;;;;;;;6.37;4.77;;;-6.80;99.90;;;;;;4975954;28;20459;-61
2024/01/09 07:48:34;;;;;;;15.83;7.83;;;-6.80;99.90;;;;;;4976118;28;20552;-62
2024/01/09 07:51:03;;;;;;;14.33;5.57;;;-6.80;99.90;;;;;;4976101;28;21071;-63
2024/01/09 07:53:31;;;;;;;3.50;3.00;;;-6.80;99.90;;;;;;4984673;28;20555;-61
2024/01/09 07:55:58;;;;;;;8.50;5.63;;;-6.70;99.90;;;;;;4996770;28;20452;-62
2024/01/09 07:58:26;;;;;;;11.03;6.47;;;-6.70;99.90;;;;;;5002396;28;20472;-61
2024/01/09 08:00:55;;;;;;;10.47;5.47;;;-5.90;99.90;;;;;;4997168;28;20458;-61
2024/01/09 08:03:22;;;;;;;7.60;5.33;;;-6.70;99.90;;;;;;4997398;28;20461;-61
2024/01/09 08:05:49;;;;;;;10.67;4.97;;;-6.70;99.90;;;;;;5007761;28;20474;-61
2024/01/09 08:08:16;;;;;;;19.93;5.67;;;-6.70;99.90;;;;;;5016470;28;20468;-60
2024/01/09 08:10:43;;;;;;;19.43;4.83;;;-6.70;99.90;;;;;;5016714;28;20525;-59
2024/01/09 08:13:10;;;;;;;9.27;5.27;;;-6.70;99.90;;;;;;4999617;28;20473;-60
2024/01/09 08:15:41;;;;;;;7.33;4.50;;;-6.60;99.90;;;;;;5009277;28;20447;-61
2024/01/09 08:18:08;;;;;;;10.70;5.70;;;-6.50;99.90;;;;;;5014956;28;20479;-60
2024/01/09 08:20:35;;;;;;;15.70;9.10;;;-6.50;99.90;;;;;;5015956;28;20449;-60
2024/01/09 08:23:02;;;;;;;10.33;5.73;;;-6.50;99.90;;;;;;5009706;28;20465;-62
2024/01/09 08:25:29;;;;;;;13.13;6.43;;;-6.50;99.90;;;;;;5013536;28;20463;-62
2024/01/09 08:27:56;;;;;;;3.90;2.67;;;-6.20;99.90;;;;;;5014842;28;20523;-61
2024/01/09 08:30:23;;;;;;;3.33;3.00;;;-6.20;99.90;;;;;;5009413;28;20429;-61
2024/01/09 08:32:51;;;;;;;13.20;7.07;;;-6.30;99.90;;;;;;5012962;28;20526;-62
2024/01/09 08:35:20;;;;;;;20.00;7.47;;;-6.40;99.90;;;;;;5000341;28;20469;-62
2024/01/09 08:37:46;;;;;;;14.00;5.30;;;-6.40;99.90;;;;;;4999059;28;20453;-62
2024/01/09 08:40:14;;;;;;;12.63;6.90;;;-6.50;99.90;;;;;;5000352;28;20469;-60
2024/01/09 08:42:40;;;;;;;13.00;4.83;;;-6.50;99.90;;;;;;5019194;28;20459;-61
2024/01/09 08:45:09;;;;;;;14.00;4.83;;;-6.50;99.90;;;;;;5020824;28;20460;-64
2024/01/09 08:47:36;;;;;;;3.00;2.33;;;-6.50;99.90;;;;;;5019392;28;20471;-64
2024/01/09 08:50:04;;;;;;;8.47;7.47;;;-6.50;99.90;;;;;;5019318;28;20963;-62
2024/01/09 08:52:33;;;;;;;11.63;5.10;;;-6.40;99.90;;;;;;5018902;28;20440;-63
2024/01/09 08:55:00;;;;;;;13.50;5.33;;;-6.40;99.90;;;;;;5018433;28;20532;-64
2024/01/09 08:57:27;;;;;;;15.93;7.57;;;-6.40;99.90;;;;;;5019150;28;20448;-63
2024/01/09 08:59:56;;;;;;;9.83;5.30;;;-6.40;99.90;;;;;;5018643;28;20477;-61
2024/01/09 09:02:23;;;;;;;10.10;4.53;;;-6.40;99.90;;;;;;5018940;28;20425;-65
2024/01/09 09:04:50;;;;;;;14.13;7.43;;;-6.30;99.90;;;;;;5014693;28;20449;-64
2024/01/09 09:07:20;;;;;;;18.13;8.67;;;-6.30;99.90;;;;;;5002324;28;20465;-64
2024/01/09 09:09:47;;;;;;;5.60;3.77;;;-6.30;99.90;;;;;;5012871;28;20449;-60
2024/01/09 09:12:14;;;;;;;12.43;6.20;;;-6.20;99.90;;;;;;5007545;28;20511;-58
2024/01/09 09:14:41;;;;;;;10.03;4.93;;;-6.10;99.90;;;;;;5000156;28;20464;-64
2024/01/09 09:17:10;;;;;;;7.03;5.07;;;-6.10;99.90;;;;;;5016071;28;20488;-61
2024/01/09 09:19:37;;;;;;;15.73;7.67;;;-6.10;99.90;;;;;;5010607;28;20522;-63
2024/01/09 09:22:06;;;;;;;15.60;6.90;;;-6.10;99.90;;;;;;5019421;28;20437;-62
2024/01/09 09:24:35;;;;;;;10.87;5.97;;;-6.20;99.90;;;;;;5018727;28;20448;-60
2024/01/09 09:27:01;;;;;;;15.20;6.33;;;-6.10;99.90;;;;;;5014038;28;20457;-63
2024/01/09 09:29:28;;;;;;;17.23;5.33;;;-6.10;99.90;;;;;;5017998;28;20453;-64
2024/01/09 09:31:55;;;;;;;15.17;6.80;;;-5.90;99.90;;;;;;5017319;28;20486;-63
2024/01/09 09:34:22;;;;;;;16.80;5.47;;;-5.90;99.90;;;;;;5017938;28;20485;-63
2024/01/09 09:36:49;;;;;;;16.30;7.43;;;-5.80;99.90;;;;;;5017725;28;20452;-64
2024/01/09 09:39:17;;;;;;;19.63;9.73;;;-5.80;99.90;;;;;;5016740;28;20576;-64
2024/01/09 09:41:46;;;;;;;17.73;7.07;;;-5.60;99.90;;;;;;5016449;28;20461;-64
2024/01/09 09:44:15;;;;;;;15.53;8.50;;;-5.20;99.90;;;;;;5017061;28;20448;-66
2024/01/09 09:46:42;;;;;;;16.40;9.73;;;-4.80;99.90;;;;;;5017694;28;20757;-66
2024/01/09 09:49:10;;;;;;;24.93;9.63;;;-4.20;99.90;;;;;;5017761;28;20463;-66
2024/01/09 09:51:39;;;;;;;17.37;9.37;;;-3.70;99.90;;;;;;5017631;28;20471;-66
2024/01/09 09:54:09;;;;;;;14.90;10.03;;;-3.30;99.90;;;;;;5016745;28;20591;-63
2024/01/09 09:56:36;;;;;;;15.07;8.73;;;-3.10;99.90;;;;;;5017481;28;20468;-66
2024/01/09 09:59:04;;;;;;;16.33;8.73;;;-2.90;99.90;;;;;;5017591;28;20434;-63
2024/01/09 10:01:33;;;;;;;19.73;8.17;;;-2.60;99.90;;;;;;5017470;28;20454;-64
2024/01/09 10:04:03;;;;;;;12.57;8.57;;;-2.30;99.90;;;;;;5017282;28;20448;-63
2024/01/09 10:06:34;;;;;;;15.27;10.20;;;-1.90;99.90;;;;;;5016801;28;20458;-66
2024/01/09 10:09:03;;;;;;;17.30;8.47;;;-2.20;99.90;;;;;;5016681;28;20478;-67
2024/01/09 10:11:32;;;;;;;18.53;9.33;;;-2.30;99.90;;;;;;5016752;28;20945;-67
2024/01/09 10:14:00;;;;;;;17.47;9.70;;;-2.30;99.90;;;;;;5017161;28;20517;-64
2024/01/09 10:16:28;;;;;;;21.67;9.33;;;-2.20;99.90;;;;;;5017446;28;20450;-66
2024/01/09 10:18:55;;;;;;;12.80;7.97;;;-1.90;99.90;;;;;;5017752;28;20470;-66
2024/01/09 10:21:23;;;;;;;17.03;9.40;;;-1.50;99.90;;;;;;5016940;28;20428;-63
2024/01/09 10:23:50;;;;;;;21.30;10.00;;;-1.00;99.90;;;;;;5017554;28;20552;-59
2024/01/09 10:26:17;;;;;;;15.60;8.47;;;-0.40;99.90;;;;;;5017852;28;20444;-65
2024/01/09 10:28:44;;;;;;;15.43;7.90;;;0.30;99.20;;;;;;5016614;28;20443;-65
2024/01/09 10:31:11;;;;;;;16.63;11.73;;;1.10;96.50;;;;;;5015485;28;20477;-66
2024/01/09 10:33:40;;;;;;;18.23;8.43;;;1.80;90.80;;;;;;5015726;28;20511;-64
2024/01/09 10:36:10;;;;;;;19.70;9.77;;;2.30;84.10;;;;;;5015733;28;20486;-65
2024/01/09 10:38:37;;;;;;;19.43;10.70;;;2.50;79.50;;;;;;5007934;28;20443;-63
2024/01/09 10:41:15;;;;;;;21.30;9.87;;;2.50;75.70;;;;;;5014136;28;20475;-66
2024/01/09 10:43:42;;;;;;;22.83;11.47;;;2.00;74.60;;;;;;5014027;28;20445;-63
2024/01/09 10:46:09;;;;;;;24.77;10.20;;;1.30;76.50;;;;;;5013667;28;20450;-65
2024/01/09 10:48:37;;;;;;;28.77;10.70;;;0.60;79.40;;;;;;5015318;28;20437;-63
2024/01/09 10:51:07;;;;;;;20.47;9.30;;;-0.10;83.70;;;;;;5015487;28;20440;-64
2024/01/09 10:53:37;;;;;;;13.03;7.50;;;-0.80;89.00;;;;;;5012568;28;20489;-64
2024/01/09 10:56:09;;;;;;;16.53;9.70;;;-1.20;92.70;;;;;;5003960;28;20484;-64
2024/01/09 10:58:36;;;;;;;19.00;8.77;;;-1.50;95.80;;;;;;5004799;28;20462;-64
2024/01/09 11:01:03;;;;;;;15.40;7.80;;;-1.80;98.10;;;;;;4996858;28;20450;-66
2024/01/09 11:03:32;;;;;;;14.90;8.27;;;-2.00;99.50;;;;;;5012669;28;20532;-65
2024/01/09 11:06:02;;;;;;;22.70;10.30;;;-2.20;99.90;;;;;;5002538;28;20501;-64
2024/01/09 11:08:33;;;;;;;17.13;7.33;;;-2.40;99.90;;;;;;5006204;28;20493;-64
2024/01/09 11:11:01;;;;;;;14.03;7.00;;;-2.60;99.90;;;;;;5015664;28;20470;-63
2024/01/09 11:13:33;;;;;;;13.43;8.23;;;-2.80;99.90;;;;;;5015864;28;20491;-66
2024/01/09 11:16:02;;;;;;;8.70;6.53;;;-3.00;99.90;;;;;;5010378;28;20474;-66
2024/01/09 11:18:30;;;;;;;18.27;8.80;;;-3.00;99.90;;;;;;5016328;28;20458;-65
2024/01/09 11:21:01;;;;;;;17.63;7.73;;;-3.10;99.90;;;;;;5002280;28;20480;-64
2024/01/09 11:23:57;;;;;;;15.13;10.20;;;-3.00;99.90;;;;;;5016604;28;20445;-67
2024/01/09 11:26:29;;;;;;;11.40;7.13;;;-3.00;99.90;;;;;;4999233;28;20488;-61
2024/01/09 11:28:57;;;;;;;18.80;7.40;;;-3.00;99.90;;;;;;5010286;28;20483;-61
2024/01/09 11:31:26;;;;;;;31.33;10.47;;;-3.00;99.90;;;;;;4998550;28;20437;-65
2024/01/09 11:33:55;;;;;;;24.43;8.77;;;-2.90;99.90;;;;;;5009493;28;20481;-65
2024/01/09 11:36:24;;;;;;;26.43;8.57;;;-2.80;99.90;;;;;;5015987;28;20472;-66
2024/01/09 11:38:55;;;;;;;19.40;7.83;;;-2.90;99.90;;;;;;5015732;28;20507;-63
2024/01/09 11:41:24;;;;;;;18.87;8.57;;;-2.80;99.90;;;;;;5014282;28;20485;-65
2024/01/09 11:44:04;;;;;;;13.27;7.37;;;-2.90;99.90;;;;;;5014960;28;20481;-64
2024/01/09 11:46:33;;;;;;;17.83;8.80;;;-2.80;99.90;;;;;;5016390;28;20578;-64
2024/01/09 11:49:00;;;;;;;17.27;8.50;;;-2.70;99.90;;;;;;5016096;28;20481;-65
2024/01/09 11:51:29;;;;;;;21.20;8.90;;;-2.70;99.90;;;;;;5016073;28;20517;-63
2024/01/09 11:53:56;;;;;;;12.37;7.37;;;-2.70;99.90;;;;;;5016727;28;20481;-65
2024/01/09 11:56:26;;;;;;;14.37;6.80;;;-2.60;99.90;;;;;;5015895;28;20473;-64
2024/01/09 11:58:53;;;;;;;18.00;7.37;;;-2.60;99.90;;;;;;5015936;28;20449;-66
2024/01/09 12:01:21;;;;;;;20.90;8.73;;;-2.60;99.90;;;;;;5015080;28;20483;-65
2024/01/09 12:03:52;;;;;;;13.53;7.97;;;-2.60;99.90;;;;;;5014988;28;20432;-63
2024/01/09 12:06:20;;;;;;;15.43;7.70;;;-2.50;99.90;;;;;;5002518;28;20502;-64
2024/01/09 12:08:47;;;;;;;17.30;8.43;;;-2.50;99.90;;;;;;4999645;28;20529;-63
2024/01/09 12:11:14;;;;;;;13.70;6.50;;;-2.50;99.90;;;;;;5000094;28;20453;-64
2024/01/09 12:13:42;;;;;;;17.30;8.90;;;-2.40;99.90;;;;;;4999087;28;20505;-65
2024/01/09 12:16:17;;;;;;;22.00;9.47;;;-2.40;99.90;;;;;;5003497;28;20463;-63
2024/01/09 12:18:52;;;;;;;22.53;8.83;;;-2.40;99.90;;;;;;5017248;28;20452;-66
2024/01/09 12:21:19;;;;;;;14.93;8.70;;;-2.40;99.90;;;;;;5018307;28;20433;-64
2024/01/09 12:23:47;;;;;;;19.30;8.70;;;-2.40;99.90;;;;;;5018140;28;20463;-62
2024/01/09 12:26:16;;;;;;;18.17;7.57;;;-2.30;99.90;;;;;;5017683;28;20501;-65
2024/01/09 12:28:44;;;;;;;14.47;8.10;;;-2.30;99.90;;;;;;5018284;28;20484;-64
2024/01/09 12:31:11;;;;;;;11.63;7.60;;;-2.20;99.90;;;;;;5017942;28;20507;-69
2024/01/09 12:33:38;;;;;;;14.83;7.40;;;-2.20;99.90;;;;;;5018509;28;20433;-67
2024/01/09 12:36:06;;;;;;;18.17;9.43;;;-2.10;99.90;;;;;;5017491;28;20490;-67
2024/01/09 12:38:34;;;;;;;14.57;8.83;;;-2.10;99.90;;;;;;5017636;28;20449;-65
2024/01/09 12:41:01;;;;;;;11.90;7.37;;;-2.10;99.90;;;;;;5018435;28;20433;-66
2024/01/09 12:43:30;;;;;;;13.73;7.43;;;-2.10;99.90;;;;;;5018104;28;20475;-64